Time;durP1;ratioP1;P1;durP2;ratioP2;P2;SDS_P1;SDS_P2;PMS_P1;PMS_P2;Temp;Humidity;BMP_temperature;BMP_pressure;BME280_temperature;BME280_humidity;BME280_pressure;Samples;Min_cycle;Max_cycle;Signal;HPM_P1;HPM_P2
2021/11/24 00:00:04;;;;;;;13.20;6.30;;;-0.30;94.60;;;;;;5094799;28;20441;-76
2021/11/24 00:02:30;;;;;;;13.43;7.25;;;-0.20;94.50;;;;;;5085819;28;20176;-76
2021/11/24 00:04:56;;;;;;;13.43;7.60;;;-0.30;94.60;;;;;;5090401;28;20198;-75
2021/11/24 00:07:22;;;;;;;18.83;7.07;;;-0.30;94.60;;;;;;5089988;28;20266;-74
2021/11/24 00:09:47;;;;;;;10.30;7.00;;;-0.30;94.60;;;;;;5089874;28;20256;-75
2021/11/24 00:12:13;;;;;;;12.70;7.50;;;-0.30;94.60;;;;;;5089506;28;20198;-74
2021/11/24 00:14:39;;;;;;;10.17;5.97;;;-0.30;94.60;;;;;;5088853;28;20207;-75
2021/11/24 00:17:04;;;;;;;16.90;6.97;;;-0.30;94.60;;;;;;5089703;28;20252;-75
2021/11/24 00:19:30;;;;;;;13.67;7.33;;;-0.30;94.60;;;;;;5089768;28;20203;-76
2021/11/24 00:21:56;;;;;;;13.47;7.50;;;-0.30;94.60;;;;;;5089704;28;20191;-74
2021/11/24 00:24:21;;;;;;;9.50;6.70;;;-0.40;94.60;;;;;;5089372;28;20183;-75
2021/11/24 00:26:48;;;;;;;14.03;7.53;;;-0.40;94.80;;;;;;5090130;28;20180;-76
2021/11/24 00:29:13;;;;;;;12.07;7.50;;;-0.40;94.60;;;;;;5090670;28;20214;-75
2021/11/24 00:31:39;;;;;;;13.83;7.50;;;-0.40;94.60;;;;;;5091332;28;20187;-74
2021/11/24 00:34:05;;;;;;;15.93;6.80;;;-0.40;94.60;;;;;;5092769;28;20238;-75
2021/11/24 00:36:31;;;;;;;14.30;7.53;;;-0.40;94.80;;;;;;5097345;28;21065;-76
2021/11/24 00:38:56;;;;;;;12.27;7.37;;;-0.40;94.90;;;;;;5093052;28;20203;-74
2021/11/24 00:41:22;;;;;;;15.40;8.10;;;-0.40;94.90;;;;;;5092849;28;20203;-73
2021/11/24 00:43:48;;;;;;;10.03;6.83;;;-0.50;94.80;;;;;;5089501;28;20221;-76
2021/11/24 00:46:15;;;;;;;12.97;6.40;;;-0.50;95.00;;;;;;5089514;28;20194;-75
2021/11/24 00:48:41;;;;;;;13.50;7.40;;;-0.50;95.00;;;;;;5089769;28;20574;-74
2021/11/24 00:51:08;;;;;;;15.40;7.93;;;-0.60;95.00;;;;;;5087438;28;20193;-74
2021/11/24 00:53:33;;;;;;;16.75;8.95;;;-0.50;95.10;;;;;;5088422;28;20218;-76
2021/11/24 00:55:59;;;;;;;13.70;7.73;;;-0.50;95.10;;;;;;5089321;28;20268;-76
2021/11/24 00:58:25;;;;;;;8.53;6.80;;;-0.50;95.10;;;;;;5088894;28;20564;-75
2021/11/24 01:00:51;;;;;;;14.30;7.03;;;-0.50;95.10;;;;;;5088198;28;20495;-74
2021/11/24 01:03:16;;;;;;;12.20;7.57;;;-0.50;95.10;;;;;;5087302;28;20213;-75
2021/11/24 01:05:46;;;;;;;17.00;7.97;;;-0.60;95.20;;;;;;5088330;28;20439;-75
2021/11/24 01:08:13;;;;;;;15.38;7.75;;;-0.60;95.30;;;;;;5088862;28;20199;-75
2021/11/24 01:10:40;;;;;;;14.60;8.13;;;-0.60;95.30;;;;;;5089599;28;20211;-74
2021/11/24 01:13:06;;;;;;;14.60;8.32;;;-0.60;95.40;;;;;;5089658;28;20228;-75
2021/11/24 01:15:32;;;;;;;14.43;8.40;;;-0.60;95.40;;;;;;5089294;28;20203;-76
2021/11/24 01:17:57;;;;;;;14.00;8.43;;;-0.60;95.40;;;;;;5091001;28;20210;-75
2021/11/24 01:20:23;;;;;;;12.97;8.00;;;-0.60;95.50;;;;;;5091685;28;20449;-75
2021/11/24 01:22:49;;;;;;;13.85;7.65;;;-0.60;95.50;;;;;;5092967;28;20183;-73
2021/11/24 01:25:15;;;;;;;12.00;8.07;;;-0.60;95.50;;;;;;5092842;28;20240;-75
2021/11/24 01:27:41;;;;;;;15.97;9.33;;;-0.60;95.50;;;;;;5091136;28;20486;-74
2021/11/24 01:30:09;;;;;;;14.20;7.65;;;-0.60;95.50;;;;;;5094005;28;20665;-75
2021/11/24 01:32:35;;;;;;;18.70;8.18;;;-0.60;95.50;;;;;;5087594;28;20239;-75
2021/11/24 01:35:02;;;;;;;17.63;8.32;;;-0.70;95.50;;;;;;5088779;28;20206;-74
2021/11/24 01:37:27;;;;;;;16.38;8.50;;;-0.70;95.50;;;;;;5088993;28;20171;-75
2021/11/24 01:39:53;;;;;;;18.30;8.23;;;-0.70;95.50;;;;;;5087455;28;20179;-75
2021/11/24 01:42:19;;;;;;;15.57;8.60;;;-0.70;95.60;;;;;;5086933;28;20207;-76
2021/11/24 01:44:46;;;;;;;18.02;8.93;;;-0.80;95.70;;;;;;5088173;28;20191;-74
2021/11/24 01:47:11;;;;;;;14.45;7.82;;;-0.70;95.80;;;;;;5088702;28;20717;-75
2021/11/24 01:49:37;;;;;;;15.53;8.23;;;-0.70;95.90;;;;;;5087499;28;20348;-75
2021/11/24 01:52:03;;;;;;;21.10;9.47;;;-0.70;95.90;;;;;;5087236;28;20277;-73
2021/11/24 01:54:30;;;;;;;17.25;8.10;;;-0.70;95.90;;;;;;5081596;28;20232;-73
2021/11/24 01:56:57;;;;;;;15.88;8.70;;;-0.70;95.80;;;;;;5091602;28;20190;-75
2021/11/24 01:59:22;;;;;;;18.33;9.30;;;-0.80;95.80;;;;;;5090510;28;20206;-74
2021/11/24 02:01:49;;;;;;;27.93;8.73;;;-0.90;95.80;;;;;;5090359;28;20316;-75
2021/11/24 02:04:15;;;;;;;16.92;9.68;;;-0.90;96.00;;;;;;5090288;28;20224;-76
2021/11/24 02:06:42;;;;;;;18.13;9.55;;;-0.90;96.10;;;;;;5091907;28;20697;-76
2021/11/24 02:09:08;;;;;;;17.02;9.52;;;-0.90;96.10;;;;;;5092779;28;20215;-74
2021/11/24 02:11:39;;;;;;;20.25;9.07;;;-0.80;96.20;;;;;;5089916;28;20183;-76
2021/11/24 02:14:06;;;;;;;18.27;8.57;;;-0.90;96.20;;;;;;5091717;28;20280;-75
2021/11/24 02:16:32;;;;;;;18.20;9.93;;;-0.90;96.20;;;;;;5092378;28;20260;-74
2021/11/24 02:18:58;;;;;;;13.90;8.35;;;-0.90;96.20;;;;;;5092143;28;20241;-74
2021/11/24 02:21:23;;;;;;;17.67;9.50;;;-0.90;96.20;;;;;;5091823;28;20258;-75
2021/11/24 02:23:49;;;;;;;15.27;9.10;;;-0.90;96.10;;;;;;5090093;28;20421;-74
2021/11/24 02:26:15;;;;;;;15.80;8.53;;;-1.00;95.90;;;;;;5090515;28;20417;-74
2021/11/24 02:28:41;;;;;;;14.47;8.20;;;-1.00;95.70;;;;;;5091579;28;20210;-73
2021/11/24 02:31:17;;;;;;;13.57;8.00;;;-1.00;95.60;;;;;;5094032;28;20187;-75
2021/11/24 02:33:49;;;;;;;15.82;8.50;;;-1.10;95.50;;;;;;5088797;28;20234;-76
2021/11/24 02:36:15;;;;;;;16.52;8.73;;;-1.10;95.40;;;;;;5092014;28;20297;-73
2021/11/24 02:38:41;;;;;;;11.83;7.83;;;-1.20;95.40;;;;;;5091380;28;20592;-75
2021/11/24 02:41:06;;;;;;;14.70;8.20;;;-1.20;95.60;;;;;;5089615;28;20493;-74
2021/11/24 02:43:32;;;;;;;15.50;8.40;;;-1.20;95.60;;;;;;5090917;28;20231;-75
2021/11/24 02:45:58;;;;;;;14.87;8.23;;;-1.20;95.70;;;;;;5091720;28;20182;-75
2021/11/24 02:48:26;;;;;;;18.80;8.70;;;-1.10;95.80;;;;;;5091103;28;20544;-75
2021/11/24 02:50:54;;;;;;;17.38;9.15;;;-1.10;95.70;;;;;;5091573;28;20172;-75
2021/11/24 02:53:26;;;;;;;16.55;8.00;;;-1.10;95.60;;;;;;5091289;28;20538;-75
2021/11/24 02:55:53;;;;;;;15.23;8.63;;;-1.10;95.50;;;;;;5091337;28;20270;-74
2021/11/24 02:58:19;;;;;;;14.98;8.80;;;-1.10;95.50;;;;;;5088798;28;20248;-76
2021/11/24 03:00:46;;;;;;;14.67;7.93;;;-1.10;95.40;;;;;;5091304;28;20183;-76
2021/11/24 03:03:11;;;;;;;14.10;8.27;;;-1.00;95.40;;;;;;5089376;28;20180;-74
2021/11/24 03:05:37;;;;;;;14.50;8.30;;;-1.10;95.30;;;;;;5090385;28;20193;-75
2021/11/24 03:08:04;;;;;;;15.33;8.73;;;-1.10;95.40;;;;;;5090257;28;20215;-75
2021/11/24 03:10:30;;;;;;;15.48;8.10;;;-1.00;95.60;;;;;;5083930;28;20427;-75
2021/11/24 03:12:57;;;;;;;15.02;8.45;;;-0.90;95.70;;;;;;5090865;28;20221;-75
2021/11/24 03:15:23;;;;;;;15.98;9.65;;;-1.00;95.70;;;;;;5090159;28;20214;-76
2021/11/24 03:17:49;;;;;;;17.75;7.72;;;-1.00;95.70;;;;;;5090390;28;20704;-74
2021/11/24 03:20:15;;;;;;;14.93;7.73;;;-0.90;95.70;;;;;;5099296;28;20179;-74
2021/11/24 03:22:41;;;;;;;16.63;7.70;;;-0.90;95.70;;;;;;5104756;28;20183;-75
2021/11/24 03:25:09;;;;;;;15.70;8.60;;;-0.90;95.70;;;;;;5090046;28;20490;-74
2021/11/24 03:27:38;;;;;;;17.00;8.50;;;-0.90;95.70;;;;;;5090123;28;20176;-76
2021/11/24 03:30:16;;;;;;;18.33;8.75;;;-0.90;95.70;;;;;;5090313;28;20183;-75
2021/11/24 03:32:42;;;;;;;15.07;8.32;;;-0.90;95.80;;;;;;5090344;28;20195;-75
2021/11/24 03:35:08;;;;;;;16.60;8.60;;;-0.80;95.80;;;;;;5089257;28;20210;-75
2021/11/24 03:37:34;;;;;;;15.57;8.73;;;-0.80;95.90;;;;;;5089848;28;20467;-74
2021/11/24 03:40:00;;;;;;;17.97;8.77;;;-0.80;95.80;;;;;;5088699;28;20425;-75
2021/11/24 03:42:25;;;;;;;16.40;9.17;;;-0.70;95.90;;;;;;5098596;28;20405;-75
2021/11/24 03:44:52;;;;;;;15.50;8.37;;;-0.50;95.90;;;;;;5101810;28;20447;-76
2021/11/24 03:47:18;;;;;;;17.98;9.32;;;-0.50;95.80;;;;;;5093112;28;20221;-75
2021/11/24 03:49:43;;;;;;;18.55;10.48;;;-0.50;95.50;;;;;;5091799;28;20673;-76
2021/11/24 03:52:09;;;;;;;16.10;9.80;;;-0.40;95.30;;;;;;5088319;28;20187;-74
2021/11/24 03:54:35;;;;;;;19.60;9.85;;;-0.40;95.00;;;;;;5089332;28;20476;-74
2021/11/24 03:57:02;;;;;;;20.97;10.33;;;-0.50;94.60;;;;;;5090134;28;20525;-75
2021/11/24 03:59:27;;;;;;;15.45;10.18;;;-0.60;94.40;;;;;;5090724;28;21012;-74
2021/11/24 04:01:53;;;;;;;21.03;11.63;;;-0.70;94.50;;;;;;5090777;28;20270;-75
2021/11/24 04:04:19;;;;;;;14.53;8.47;;;-0.70;94.60;;;;;;5089719;28;20254;-75
2021/11/24 04:06:45;;;;;;;17.10;10.07;;;-0.80;94.70;;;;;;5088509;28;20548;-75
2021/11/24 04:09:10;;;;;;;22.30;11.27;;;-0.80;94.90;;;;;;5090001;28;20211;-76
2021/11/24 04:11:36;;;;;;;20.30;11.30;;;-0.70;95.00;;;;;;5090376;28;20199;-76
2021/11/24 04:14:02;;;;;;;21.10;12.20;;;-0.60;95.10;;;;;;5089894;28;20206;-75
2021/11/24 04:16:28;;;;;;;22.60;11.80;;;-0.60;95.00;;;;;;5081253;28;20416;-74
2021/11/24 04:18:55;;;;;;;22.33;11.93;;;-0.60;95.00;;;;;;5089287;28;20811;-75
2021/11/24 04:21:21;;;;;;;18.55;10.30;;;-0.60;94.90;;;;;;5089516;28;20405;-76
2021/11/24 04:23:47;;;;;;;16.52;10.32;;;-0.60;94.80;;;;;;5090401;28;20237;-75
2021/11/24 04:26:13;;;;;;;25.77;11.80;;;-0.60;94.90;;;;;;5091097;28;20196;-75
2021/11/24 04:28:39;;;;;;;17.40;10.18;;;-0.60;95.00;;;;;;5094579;28;20593;-73
2021/11/24 04:31:07;;;;;;;18.27;10.60;;;-0.60;95.10;;;;;;5093792;28;20933;-73
2021/11/24 04:33:33;;;;;;;23.17;9.60;;;-0.70;95.10;;;;;;5088206;28;20434;-73
2021/11/24 04:35:59;;;;;;;14.00;9.63;;;-0.70;95.10;;;;;;5090148;28;20301;-73
2021/11/24 04:38:25;;;;;;;19.63;9.27;;;-0.70;95.00;;;;;;5089697;28;20274;-74
2021/11/24 04:40:50;;;;;;;17.60;9.40;;;-0.80;95.10;;;;;;5089976;28;20447;-74
2021/11/24 04:43:18;;;;;;;17.13;9.40;;;-0.80;95.10;;;;;;5089617;28;20524;-76
2021/11/24 04:45:44;;;;;;;18.95;9.80;;;-0.80;95.10;;;;;;5089484;28;20191;-74
2021/11/24 04:48:10;;;;;;;20.97;10.00;;;-0.90;95.10;;;;;;5088340;28;20207;-75
2021/11/24 04:50:36;;;;;;;20.05;9.45;;;-1.00;95.10;;;;;;5090021;28;20421;-75
2021/11/24 04:53:02;;;;;;;18.67;9.27;;;-1.00;95.20;;;;;;5089069;28;20194;-76
2021/11/24 04:55:28;;;;;;;19.67;9.90;;;-1.00;95.30;;;;;;5087786;28;20205;-74
2021/11/24 04:57:54;;;;;;;16.65;8.93;;;-1.10;95.40;;;;;;5088664;28;20864;-75
2021/11/24 05:00:22;;;;;;;15.67;8.77;;;-1.10;95.40;;;;;;5088938;28;20187;-75
2021/11/24 05:02:50;;;;;;;22.10;10.88;;;-1.20;95.50;;;;;;5088424;28;20187;-75
2021/11/24 05:05:17;;;;;;;19.02;10.52;;;-1.20;95.60;;;;;;5088015;28;20192;-76
2021/11/24 05:07:42;;;;;;;18.50;9.80;;;-1.20;95.60;;;;;;5088554;28;20272;-75
2021/11/24 05:10:08;;;;;;;17.13;9.43;;;-1.30;95.70;;;;;;5090254;28;20343;-74
2021/11/24 05:12:35;;;;;;;16.27;9.27;;;-1.30;95.70;;;;;;5090574;28;20190;-75
2021/11/24 05:15:02;;;;;;;20.20;9.73;;;-1.30;95.70;;;;;;5089492;28;20199;-74
2021/11/24 05:17:29;;;;;;;19.23;10.20;;;-1.30;95.70;;;;;;5087351;28;20262;-75
2021/11/24 05:19:56;;;;;;;18.42;10.20;;;-1.30;95.80;;;;;;5088665;28;20174;-75
2021/11/24 05:22:22;;;;;;;18.35;9.45;;;-1.40;95.90;;;;;;5088214;28;20574;-75
2021/11/24 05:24:48;;;;;;;18.60;10.13;;;-1.40;96.00;;;;;;5088326;28;20297;-74
2021/11/24 05:27:14;;;;;;;17.77;10.47;;;-1.40;96.10;;;;;;5088813;28;20261;-75
2021/11/24 05:29:40;;;;;;;18.50;10.70;;;-1.40;96.20;;;;;;5090221;28;20199;-74
2021/11/24 05:32:07;;;;;;;19.10;9.77;;;-1.40;96.30;;;;;;5085706;28;20434;-74
2021/11/24 05:34:32;;;;;;;16.77;9.93;;;-1.40;96.40;;;;;;5087379;28;20265;-76
2021/11/24 05:36:59;;;;;;;18.90;10.60;;;-1.40;96.40;;;;;;5087900;28;20183;-75
2021/11/24 05:39:27;;;;;;;20.15;9.95;;;-1.40;96.40;;;;;;5085120;28;20237;-75
2021/11/24 05:41:53;;;;;;;20.15;11.63;;;-1.40;96.30;;;;;;5087910;28;20199;-73
2021/11/24 05:44:25;;;;;;;21.00;11.57;;;-1.50;96.30;;;;;;5085975;28;20187;-74
2021/11/24 05:47:01;;;;;;;19.17;11.15;;;-1.40;96.30;;;;;;5089048;28;20187;-75
2021/11/24 05:49:28;;;;;;;21.42;10.85;;;-1.50;96.40;;;;;;5090673;28;20203;-76
2021/11/24 05:51:55;;;;;;;19.60;10.10;;;-1.60;96.40;;;;;;5093994;28;20319;-76
2021/11/24 05:54:21;;;;;;;19.73;11.07;;;-1.60;96.50;;;;;;5100690;28;20289;-74
2021/11/24 05:56:47;;;;;;;22.67;11.93;;;-1.60;96.60;;;;;;5097490;28;20290;-75
2021/11/24 05:59:15;;;;;;;26.40;12.00;;;-1.60;96.70;;;;;;5092680;28;20568;-76
2021/11/24 06:01:41;;;;;;;20.23;11.38;;;-1.60;96.70;;;;;;5086184;28;20545;-75
2021/11/24 06:04:07;;;;;;;20.23;11.97;;;-1.50;96.70;;;;;;5091679;28;20187;-74
2021/11/24 06:06:34;;;;;;;20.07;10.53;;;-1.50;96.80;;;;;;5091439;28;20191;-76
2021/11/24 06:09:00;;;;;;;17.80;10.85;;;-1.50;96.80;;;;;;5091427;28;20966;-76
2021/11/24 06:11:26;;;;;;;24.13;11.07;;;-1.50;96.70;;;;;;5090912;28;20218;-75
2021/11/24 06:13:52;;;;;;;23.70;11.90;;;-1.40;96.70;;;;;;5090398;28;20324;-74
2021/11/24 06:16:18;;;;;;;23.20;11.90;;;-1.40;96.70;;;;;;5089834;28;20183;-76
2021/11/24 06:18:44;;;;;;;21.05;12.38;;;-1.40;96.50;;;;;;5089678;28;20437;-75
2021/11/24 06:21:10;;;;;;;18.87;10.80;;;-1.50;96.40;;;;;;5090406;28;20266;-75
2021/11/24 06:23:42;;;;;;;20.35;11.70;;;-1.60;96.30;;;;;;5090372;28;20475;-76
2021/11/24 06:26:08;;;;;;;22.23;12.38;;;-1.60;96.30;;;;;;5091738;28;20270;-75
2021/11/24 06:28:35;;;;;;;22.67;11.57;;;-1.50;96.30;;;;;;5092584;28;20203;-75
2021/11/24 06:31:02;;;;;;;18.10;12.02;;;-1.50;96.40;;;;;;5091666;28;20199;-76
2021/11/24 06:33:28;;;;;;;23.85;12.75;;;-1.50;96.30;;;;;;5086722;28;20534;-74
2021/11/24 06:35:54;;;;;;;22.08;12.48;;;-1.40;96.50;;;;;;5091330;28;20191;-76
2021/11/24 06:38:21;;;;;;;19.27;12.07;;;-1.40;96.40;;;;;;5090713;28;20253;-74
2021/11/24 06:40:48;;;;;;;26.55;12.68;;;-1.40;96.40;;;;;;5087608;28;20665;-76
2021/11/24 06:43:13;;;;;;;23.80;12.75;;;-1.40;96.40;;;;;;5089821;28;20654;-75
2021/11/24 06:45:41;;;;;;;22.27;12.37;;;-1.40;96.30;;;;;;5088948;28;20217;-76
2021/11/24 06:48:08;;;;;;;26.02;14.45;;;-1.40;96.30;;;;;;5090343;28;20495;-77
2021/11/24 06:50:34;;;;;;;32.00;15.20;;;-1.40;96.20;;;;;;5090672;28;20719;-76
2021/11/24 06:53:00;;;;;;;35.65;16.95;;;-1.40;96.10;;;;;;5091050;28;20669;-74
2021/11/24 06:55:26;;;;;;;26.13;14.10;;;-1.40;96.00;;;;;;5090285;28;20258;-75
2021/11/24 06:57:52;;;;;;;28.73;14.97;;;-1.40;95.90;;;;;;5089696;28;20203;-75
2021/11/24 07:00:18;;;;;;;25.80;14.77;;;-1.40;95.90;;;;;;5090749;28;20183;-76
2021/11/24 07:02:44;;;;;;;24.05;13.85;;;-1.40;95.90;;;;;;5090869;28;20645;-75
2021/11/24 07:05:11;;;;;;;24.07;14.57;;;-1.40;95.90;;;;;;5090359;28;20187;-76
2021/11/24 07:07:37;;;;;;;22.63;12.95;;;-1.40;95.80;;;;;;5089971;28;20195;-76
2021/11/24 07:10:04;;;;;;;25.93;12.90;;;-1.50;95.80;;;;;;5090409;28;20274;-76
2021/11/24 07:12:32;;;;;;;26.73;13.05;;;-1.40;95.80;;;;;;5090612;28;20428;-75
2021/11/24 07:15:00;;;;;;;28.13;14.38;;;-1.50;95.80;;;;;;5090192;28;20210;-76
2021/11/24 07:17:26;;;;;;;22.95;13.57;;;-1.40;95.90;;;;;;5090583;28;20179;-76
2021/11/24 07:19:52;;;;;;;26.90;14.03;;;-1.40;95.90;;;;;;5091289;28;20259;-76
2021/11/24 07:22:18;;;;;;;28.90;13.75;;;-1.40;95.80;;;;;;5090747;28;20182;-76
2021/11/24 07:24:44;;;;;;;23.27;13.15;;;-1.30;95.70;;;;;;5090847;28;20183;-76
2021/11/24 07:27:10;;;;;;;24.97;13.47;;;-1.30;95.70;;;;;;5092233;28;21361;-75
2021/11/24 07:29:36;;;;;;;31.37;13.13;;;-1.30;95.70;;;;;;5095251;28;20444;-76
2021/11/24 07:32:02;;;;;;;24.80;13.63;;;-1.30;95.60;;;;;;5094299;28;20222;-75
2021/11/24 07:34:29;;;;;;;23.85;13.95;;;-1.20;95.60;;;;;;5096503;28;20487;-74
2021/11/24 07:36:55;;;;;;;30.00;14.63;;;-1.20;95.40;;;;;;5098048;28;20186;-75
2021/11/24 07:39:24;;;;;;;24.63;12.40;;;-1.10;95.20;;;;;;5099866;28;20206;-75
2021/11/24 07:41:50;;;;;;;29.83;13.90;;;-1.10;94.90;;;;;;5092553;28;20194;-74
2021/11/24 07:44:16;;;;;;;27.77;13.73;;;-1.10;94.80;;;;;;5090071;28;20596;-75
2021/11/24 07:46:41;;;;;;;25.80;13.77;;;-1.00;94.90;;;;;;5090524;28;20471;-74
2021/11/24 07:49:07;;;;;;;30.83;14.43;;;-1.00;94.80;;;;;;5090766;28;20215;-76
2021/11/24 07:51:33;;;;;;;27.77;12.97;;;-0.80;94.90;;;;;;5090672;28;20923;-76
2021/11/24 07:53:59;;;;;;;31.63;13.57;;;-0.70;95.10;;;;;;5090713;28;20872;-75
2021/11/24 07:56:24;;;;;;;26.07;13.33;;;-0.50;95.10;;;;;;5091134;28;20460;-76
2021/11/24 07:58:51;;;;;;;27.77;13.00;;;-0.40;95.00;;;;;;5090920;28;20231;-76
2021/11/24 08:01:16;;;;;;;25.05;13.70;;;-0.20;94.70;;;;;;5090580;28;20183;-75
2021/11/24 08:03:42;;;;;;;24.10;12.50;;;0.00;94.40;;;;;;5089630;28;20204;-76
2021/11/24 08:06:08;;;;;;;27.30;12.67;;;0.00;93.80;;;;;;5095506;28;20266;-75
2021/11/24 08:08:34;;;;;;;26.10;13.38;;;0.00;93.60;;;;;;5090519;28;20272;-75
2021/11/24 08:11:01;;;;;;;26.67;13.52;;;0.10;93.60;;;;;;5091933;28;20187;-75
2021/11/24 08:13:27;;;;;;;28.00;12.88;;;0.30;93.70;;;;;;5094973;28;20505;-75
2021/11/24 08:15:52;;;;;;;29.57;13.87;;;0.40;93.60;;;;;;5092059;28;20355;-76
2021/11/24 08:18:18;;;;;;;26.60;13.97;;;0.50;93.40;;;;;;5091966;28;20505;-75
2021/11/24 08:20:44;;;;;;;25.30;13.30;;;0.70;93.10;;;;;;5089749;28;20184;-76
2021/11/24 08:23:10;;;;;;;28.67;13.57;;;0.80;92.50;;;;;;5090424;28;20190;-74
2021/11/24 08:25:36;;;;;;;27.40;14.43;;;0.80;92.30;;;;;;5088307;28;20475;-75
2021/11/24 08:28:02;;;;;;;30.95;14.68;;;0.80;92.20;;;;;;5089741;28;20218;-75
2021/11/24 08:30:28;;;;;;;27.25;13.85;;;0.90;92.40;;;;;;5089373;28;20187;-75
2021/11/24 08:32:54;;;;;;;27.50;14.45;;;0.90;92.40;;;;;;5087332;28;20183;-74
2021/11/24 08:35:20;;;;;;;27.20;13.43;;;1.00;92.40;;;;;;5087824;28;20257;-74
2021/11/24 08:37:47;;;;;;;29.40;13.57;;;1.10;92.40;;;;;;5089910;28;20193;-75
2021/11/24 08:40:13;;;;;;;31.90;13.75;;;1.30;92.20;;;;;;5089752;28;20263;-74
2021/11/24 08:42:39;;;;;;;26.48;13.80;;;1.40;91.90;;;;;;5088048;28;20187;-75
2021/11/24 08:45:07;;;;;;;24.90;13.32;;;1.50;91.80;;;;;;5089237;28;20183;-74
2021/11/24 08:47:34;;;;;;;31.20;14.90;;;1.70;91.70;;;;;;5091266;28;20184;-75
2021/11/24 08:50:00;;;;;;;34.00;15.30;;;1.70;91.10;;;;;;5091533;28;20201;-77
2021/11/24 08:52:26;;;;;;;31.60;14.32;;;1.50;90.40;;;;;;5096665;28;20529;-75
2021/11/24 08:54:51;;;;;;;26.98;14.25;;;1.40;89.70;;;;;;5097532;28;20207;-75
2021/11/24 08:57:17;;;;;;;30.13;14.50;;;1.50;90.00;;;;;;5092951;28;20198;-75
2021/11/24 08:59:44;;;;;;;27.53;13.23;;;1.60;90.00;;;;;;5092066;28;20199;-74
2021/11/24 09:02:09;;;;;;;32.10;14.50;;;1.70;90.30;;;;;;5088317;28;20426;-75
2021/11/24 09:04:36;;;;;;;30.53;14.73;;;1.90;90.30;;;;;;5088620;28;20250;-75
2021/11/24 09:07:02;;;;;;;29.20;14.10;;;2.10;90.50;;;;;;5087738;28;20690;-75
2021/11/24 09:09:28;;;;;;;36.95;15.45;;;2.20;90.50;;;;;;5089014;28;20691;-75
2021/11/24 09:11:54;;;;;;;45.30;16.10;;;2.30;90.70;;;;;;5087290;28;20195;-75
2021/11/24 09:14:20;;;;;;;35.70;16.08;;;2.40;90.70;;;;;;5088283;28;20469;-76
2021/11/24 09:23:30;;;;;;;35.95;15.77;;;2.50;90.40;;;;;;5079131;28;20272;-75
2021/11/24 09:28:29;;;;;;;37.00;16.48;;;2.50;90.60;;;;;;5088651;28;20523;-76
2021/11/24 09:30:56;;;;;;;28.52;13.35;;;2.50;90.80;;;;;;5087952;28;20186;-74
2021/11/24 09:33:22;;;;;;;34.15;16.00;;;2.50;90.90;;;;;;5086608;28;20191;-75
2021/11/24 09:35:48;;;;;;;31.10;14.07;;;2.60;91.00;;;;;;5088379;28;20582;-76
2021/11/24 09:38:14;;;;;;;32.45;14.93;;;2.70;90.80;;;;;;5088809;28;20819;-76
2021/11/24 09:40:40;;;;;;;34.87;15.90;;;2.70;90.40;;;;;;5089805;28;20187;-75
2021/11/24 09:43:10;;;;;;;30.98;14.10;;;2.70;90.30;;;;;;5088931;28;20413;-76
2021/11/24 09:45:38;;;;;;;33.50;15.63;;;2.70;90.20;;;;;;5091941;28;20183;-75
2021/11/24 09:48:39;;;;;;;30.55;15.23;;;2.70;89.90;;;;;;5092213;28;20598;-75
2021/11/24 09:54:27;;;;;;;27.25;14.02;;;2.70;89.90;;;;;;5089270;28;20253;-75
2021/11/24 09:56:53;;;;;;;30.10;13.47;;;2.70;89.90;;;;;;5090235;28;20211;-75
2021/11/24 09:59:19;;;;;;;32.35;14.60;;;2.60;89.70;;;;;;5093189;28;20256;-76
2021/11/24 10:01:44;;;;;;;29.50;14.60;;;2.60;90.10;;;;;;5089151;28;20183;-75
2021/11/24 10:04:11;;;;;;;30.33;13.50;;;2.60;90.10;;;;;;5088201;28;20187;-75
2021/11/24 10:06:39;;;;;;;30.20;14.20;;;2.60;90.30;;;;;;5087370;28;20191;-76
2021/11/24 10:09:07;;;;;;;30.23;13.70;;;2.70;90.50;;;;;;5088745;28;20436;-75
2021/11/24 10:11:32;;;;;;;26.60;12.80;;;2.90;90.10;;;;;;5089115;28;20496;-75
2021/11/24 10:14:00;;;;;;;27.87;13.20;;;3.10;89.60;;;;;;5088227;28;20548;-75
2021/11/24 10:16:31;;;;;;;28.48;12.90;;;3.40;88.70;;;;;;5088563;28;20218;-75
2021/11/24 10:19:07;;;;;;;26.13;13.03;;;3.60;87.30;;;;;;5088544;28;20582;-76
2021/11/24 10:21:33;;;;;;;33.80;14.23;;;3.60;86.50;;;;;;5088706;28;20405;-75
2021/11/24 10:24:04;;;;;;;39.23;13.67;;;3.70;86.30;;;;;;5088141;28;20922;-76
2021/11/24 10:26:38;;;;;;;29.63;12.95;;;3.80;86.50;;;;;;5081753;28;20413;-75
2021/11/24 10:29:16;;;;;;;28.50;13.20;;;4.10;85.70;;;;;;5085404;28;20211;-75
2021/11/24 10:31:43;;;;;;;23.70;12.60;;;4.20;83.30;;;;;;5090226;28;20482;-76
2021/11/24 10:34:24;;;;;;;29.90;12.83;;;4.10;82.40;;;;;;5096656;28;20490;-76
2021/11/24 10:36:56;;;;;;;27.60;13.10;;;4.20;83.10;;;;;;5098100;28;20825;-75
2021/11/24 10:39:23;;;;;;;29.77;12.43;;;4.10;83.10;;;;;;5091798;28;20450;-76
2021/11/24 10:41:49;;;;;;;26.47;13.07;;;4.10;83.70;;;;;;5130187;27;20445;-76
2021/11/24 10:44:31;;;;;;;39.17;15.10;;;4.20;83.60;;;;;;5099030;28;20429;-75
2021/11/24 10:46:59;;;;;;;26.73;12.70;;;4.40;82.80;;;;;;5092696;28;20503;-76
2021/11/24 10:49:53;;;;;;;28.50;13.97;;;4.60;81.90;;;;;;5092467;28;20433;-76
2021/11/24 10:52:30;;;;;;;26.13;13.53;;;4.80;81.50;;;;;;5086605;28;20903;-75
2021/11/24 10:54:56;;;;;;;27.27;12.00;;;4.90;80.30;;;;;;5090844;28;20606;-75
2021/11/24 10:57:22;;;;;;;23.73;11.90;;;4.80;80.50;;;;;;5090634;28;20526;-75
2021/11/24 10:59:47;;;;;;;26.20;12.67;;;4.70;80.80;;;;;;5092075;28;20199;-77
2021/11/24 11:02:27;;;;;;;24.83;13.10;;;4.50;81.70;;;;;;5091667;28;20447;-75
2021/11/24 11:05:22;;;;;;;26.97;12.40;;;4.60;81.80;;;;;;5094326;28;20207;-77
2021/11/24 11:07:52;;;;;;;27.30;12.80;;;4.60;82.10;;;;;;5084184;28;20481;-76
2021/11/24 11:10:34;;;;;;;32.50;14.30;;;4.50;81.20;;;;;;5094767;28;20532;-76
2021/11/24 11:13:02;;;;;;;26.60;12.77;;;4.40;81.40;;;;;;5096858;28;20421;-76
2021/11/24 11:15:37;;;;;;;30.63;15.00;;;4.40;80.50;;;;;;5095694;28;20501;-72
2021/11/24 11:18:08;;;;;;;26.13;13.20;;;4.40;79.50;;;;;;5080693;28;20440;-76
2021/11/24 11:20:42;;;;;;;26.60;13.67;;;4.40;79.30;;;;;;5091071;28;20471;-76
2021/11/24 11:23:15;;;;;;;31.20;14.87;;;4.40;78.90;;;;;;5091409;28;21142;-75
2021/11/24 11:25:47;;;;;;;29.63;13.20;;;4.50;79.00;;;;;;5090582;28;20409;-76
2021/11/24 11:28:14;;;;;;;31.10;13.93;;;4.50;78.70;;;;;;5090489;28;20452;-76
2021/11/24 11:30:43;;;;;;;29.90;12.83;;;4.50;78.10;;;;;;5090484;28;20421;-75
2021/11/24 11:33:13;;;;;;;31.90;14.07;;;4.50;78.00;;;;;;5087836;28;20431;-76
2021/11/24 11:35:40;;;;;;;29.33;13.87;;;4.50;77.70;;;;;;5088514;28;21508;-75
2021/11/24 11:38:05;;;;;;;25.77;12.87;;;4.40;77.80;;;;;;5088673;28;20467;-75
2021/11/24 11:40:35;;;;;;;28.43;12.33;;;4.40;78.40;;;;;;5090255;28;20433;-76
2021/11/24 11:43:03;;;;;;;23.77;11.40;;;4.40;78.70;;;;;;5090802;28;20179;-76
2021/11/24 11:45:31;;;;;;;31.90;13.03;;;4.40;78.40;;;;;;5091816;28;20986;-78
2021/11/24 11:47:59;;;;;;;28.10;11.40;;;4.30;78.40;;;;;;5090054;28;20856;-75
2021/11/24 11:50:46;;;;;;;26.93;12.43;;;4.30;78.60;;;;;;5089489;28;20414;-76
2021/11/24 11:53:12;;;;;;;25.25;11.82;;;4.30;78.40;;;;;;5090469;28;20420;-76
2021/11/24 11:55:38;;;;;;;32.90;13.47;;;4.20;78.60;;;;;;5090344;28;20207;-76
2021/11/24 11:58:27;;;;;;;26.93;13.27;;;4.20;78.40;;;;;;5090003;28;20493;-76
2021/11/24 12:01:17;;;;;;;24.33;11.30;;;4.20;79.00;;;;;;5096200;28;20253;-75
2021/11/24 12:04:20;;;;;;;28.00;11.23;;;4.20;79.60;;;;;;5083777;28;21004;-75
2021/11/24 12:06:47;;;;;;;26.67;11.33;;;4.30;79.20;;;;;;5084139;28;20431;-76
2021/11/24 12:09:19;;;;;;;25.20;11.67;;;4.30;78.90;;;;;;5089203;28;21051;-76
2021/11/24 12:15:00;;;;;;;25.00;11.10;;;4.40;78.30;;;;;;5093300;28;20468;-77
2021/11/24 12:17:32;;;;;;;23.03;11.80;;;4.40;78.30;;;;;;5093192;28;20794;-76
2021/11/24 12:20:19;;;;;;;27.60;11.13;;;4.50;78.00;;;;;;5088872;28;20698;-75
2021/11/24 12:27:53;;;;;;;19.80;10.00;;;4.90;76.10;;;;;;5089239;28;20417;-77
2021/11/24 12:33:13;;;;;;;23.83;10.90;;;5.30;74.80;;;;;;5087004;28;20515;-75
2021/11/24 12:35:57;;;;;;;23.97;11.93;;;5.50;73.70;;;;;;5085989;28;20579;-76
2021/11/24 12:38:48;;;;;;;25.80;11.47;;;5.70;72.40;;;;;;5088687;28;20448;-75
2021/11/24 12:41:22;;;;;;;23.20;11.87;;;5.90;72.00;;;;;;5086206;28;20471;-76
2021/11/24 12:43:59;;;;;;;23.73;11.77;;;5.90;71.70;;;;;;5097006;28;20421;-76
2021/11/24 12:46:27;;;;;;;20.63;10.70;;;5.90;72.00;;;;;;5099277;28;20466;-76
2021/11/24 12:48:54;;;;;;;28.60;12.40;;;6.00;71.70;;;;;;5100962;28;20437;-76
2021/11/24 12:51:20;;;;;;;20.93;11.27;;;6.00;71.30;;;;;;5095058;28;20441;-75
2021/11/24 12:54:02;;;;;;;22.50;10.80;;;6.00;71.40;;;;;;5088471;28;20443;-76
2021/11/24 12:57:02;;;;;;;23.30;11.80;;;6.00;71.70;;;;;;5088949;28;20199;-76
2021/11/24 12:59:35;;;;;;;30.20;11.77;;;6.00;71.70;;;;;;5025510;28;20958;-76